Time;durP1;ratioP1;P1;durP2;ratioP2;P2;SDS_P1;SDS_P2;PMS_P1;PMS_P2;Temp;Humidity;BMP_temperature;BMP_pressure;BME280_temperature;BME280_humidity;BME280_pressure;Samples;Min_cycle;Max_cycle;Signal;HPM_P1;HPM_P2
2023/05/20 00:00:52;;;;;;;14.15;8.68;;;13.10;99.90;;;;;;5017208;28;20165;-57
2023/05/20 00:03:21;;;;;;;13.20;7.72;;;13.10;99.90;;;;;;5015186;28;20428;-57
2023/05/20 00:05:47;;;;;;;13.75;7.32;;;13.00;99.90;;;;;;5021661;28;20071;-57
2023/05/20 00:08:13;;;;;;;14.38;8.23;;;13.00;99.90;;;;;;5019231;28;20142;-57
2023/05/20 00:10:40;;;;;;;12.13;7.43;;;13.00;99.90;;;;;;5016864;28;20049;-57
2023/05/20 00:13:06;;;;;;;18.75;8.50;;;12.90;99.90;;;;;;5020380;28;20033;-57
2023/05/20 00:15:32;;;;;;;17.13;9.02;;;12.90;99.90;;;;;;5020544;28;20519;-57
2023/05/20 00:18:00;;;;;;;20.83;7.20;;;12.90;99.90;;;;;;5021291;28;20099;-57
2023/05/20 00:20:25;;;;;;;17.70;9.70;;;12.90;99.90;;;;;;5019436;28;21860;-57
2023/05/20 00:22:51;;;;;;;12.77;7.07;;;12.90;99.90;;;;;;5018198;28;20049;-58
2023/05/20 00:25:17;;;;;;;11.82;7.32;;;12.90;99.90;;;;;;5019644;28;20065;-57
2023/05/20 00:27:43;;;;;;;13.20;8.15;;;12.80;99.90;;;;;;5016135;28;20085;-58
2023/05/20 00:30:09;;;;;;;14.55;6.50;;;12.80;99.90;;;;;;5021005;28;20052;-57
2023/05/20 00:32:35;;;;;;;20.50;8.13;;;12.80;99.90;;;;;;5022906;28;20050;-57
2023/05/20 00:35:02;;;;;;;10.60;7.15;;;12.80;99.90;;;;;;5023178;28;20582;-56
2023/05/20 00:37:28;;;;;;;16.55;7.53;;;12.80;99.90;;;;;;5020264;28;20619;-57
2023/05/20 00:39:53;;;;;;;12.63;7.60;;;12.70;99.90;;;;;;5019950;28;20611;-57
2023/05/20 00:42:24;;;;;;;14.65;6.78;;;12.70;99.90;;;;;;5018345;28;20526;-58
2023/05/20 00:44:50;;;;;;;14.75;7.53;;;12.70;99.90;;;;;;5017047;28;20560;-57
2023/05/20 00:47:17;;;;;;;17.02;7.45;;;12.70;99.90;;;;;;5019368;28;20548;-58
2023/05/20 00:49:49;;;;;;;8.75;5.13;;;12.60;99.90;;;;;;5016851;28;20558;-58
2023/05/20 00:52:16;;;;;;;9.82;6.55;;;12.60;99.90;;;;;;5013558;28;20161;-57
2023/05/20 00:54:42;;;;;;;9.95;6.82;;;12.60;99.90;;;;;;5019501;28;20042;-57
2023/05/20 00:57:08;;;;;;;13.25;6.82;;;12.50;99.90;;;;;;5017355;28;20598;-58
2023/05/20 00:59:36;;;;;;;18.45;5.95;;;12.50;99.90;;;;;;5017174;28;20041;-58
2023/05/20 01:02:03;;;;;;;15.23;8.30;;;12.50;99.90;;;;;;5014405;28;20543;-58
2023/05/20 01:04:29;;;;;;;13.43;6.32;;;12.50;99.90;;;;;;5016153;28;20046;-57
2023/05/20 01:06:56;;;;;;;15.20;8.82;;;12.50;99.90;;;;;;5014339;28;20108;-57
2023/05/20 01:09:23;;;;;;;17.42;7.05;;;12.40;99.90;;;;;;5016493;28;20748;-57
2023/05/20 01:11:54;;;;;;;9.52;4.72;;;12.40;99.90;;;;;;5019340;28;20115;-57
2023/05/20 01:14:22;;;;;;;14.77;5.47;;;12.40;99.90;;;;;;5019518;28;20106;-57
2023/05/20 01:16:50;;;;;;;15.32;7.53;;;12.40;99.90;;;;;;5018572;28;20573;-57
2023/05/20 01:19:47;;;;;;;15.30;6.75;;;12.30;99.90;;;;;;5050393;28;20077;-57
2023/05/20 01:22:14;;;;;;;13.55;6.38;;;12.40;99.90;;;;;;5016039;28;20038;-57
2023/05/20 01:24:52;;;;;;;8.77;6.35;;;12.30;99.90;;;;;;5016828;28;20048;-57
2023/05/20 01:27:19;;;;;;;13.85;6.88;;;12.30;99.90;;;;;;5019928;28;20054;-57
2023/05/20 01:29:49;;;;;;;14.65;7.45;;;12.30;99.90;;;;;;5017999;28;20080;-57
2023/05/20 01:32:31;;;;;;;15.45;7.05;;;12.30;99.90;;;;;;5018795;28;20042;-57
2023/05/20 01:34:58;;;;;;;14.35;9.65;;;12.30;99.90;;;;;;5019003;28;20042;-57
2023/05/20 01:37:26;;;;;;;7.63;4.75;;;12.20;99.90;;;;;;5021762;28;20144;-58
2023/05/20 01:39:53;;;;;;;10.98;5.97;;;12.30;99.90;;;;;;5018218;28;20578;-58
2023/05/20 01:42:19;;;;;;;11.88;5.32;;;12.20;99.90;;;;;;5018955;28;20041;-58
2023/05/20 01:44:45;;;;;;;11.98;6.22;;;12.10;99.90;;;;;;5018949;28;20049;-57
2023/05/20 01:47:11;;;;;;;14.85;6.13;;;12.20;99.90;;;;;;5018741;28;20053;-57
2023/05/20 01:49:37;;;;;;;15.43;7.82;;;12.20;99.90;;;;;;5021826;28;20046;-58
2023/05/20 01:52:04;;;;;;;12.30;7.50;;;12.10;99.90;;;;;;5022722;28;20034;-57
2023/05/20 01:54:30;;;;;;;13.93;8.63;;;12.10;99.90;;;;;;5021370;28;20163;-57
2023/05/20 01:56:55;;;;;;;18.48;8.20;;;12.10;99.90;;;;;;5016734;28;20492;-57
2023/05/20 01:59:21;;;;;;;16.25;6.25;;;12.10;99.90;;;;;;5018964;28;20607;-59
2023/05/20 02:01:47;;;;;;;16.17;7.10;;;12.10;99.90;;;;;;5019361;28;20049;-58
2023/05/20 02:04:13;;;;;;;11.68;8.05;;;12.10;99.90;;;;;;5018960;28;21707;-57
2023/05/20 02:06:39;;;;;;;13.15;7.45;;;12.00;99.90;;;;;;5022202;28;20057;-57
2023/05/20 02:09:05;;;;;;;12.27;6.95;;;12.00;99.90;;;;;;5023723;28;20080;-57
2023/05/20 02:11:31;;;;;;;22.83;8.65;;;12.00;99.90;;;;;;5020250;28;20132;-58
2023/05/20 02:13:56;;;;;;;16.80;5.85;;;12.00;99.90;;;;;;5019639;28;20128;-57
2023/05/20 02:16:22;;;;;;;16.40;6.35;;;12.00;99.90;;;;;;5018388;28;20737;-57
2023/05/20 02:18:50;;;;;;;16.48;5.55;;;12.00;99.90;;;;;;5006568;28;20042;-57
2023/05/20 02:21:16;;;;;;;11.13;6.05;;;12.00;99.90;;;;;;5020210;28;20042;-57
2023/05/20 02:23:41;;;;;;;18.65;8.00;;;11.90;99.90;;;;;;5018398;28;20053;-57
2023/05/20 02:26:07;;;;;;;11.27;6.45;;;11.90;99.90;;;;;;5021633;28;20049;-57
2023/05/20 02:28:33;;;;;;;15.57;8.00;;;11.90;99.90;;;;;;5020878;28;20045;-57
2023/05/20 02:30:58;;;;;;;13.55;7.78;;;11.90;99.90;;;;;;5019424;28;20407;-57
2023/05/20 02:33:26;;;;;;;11.45;5.05;;;11.90;99.90;;;;;;5023349;28;20574;-57
2023/05/20 02:35:52;;;;;;;7.40;4.47;;;11.80;99.90;;;;;;5019767;28;20046;-57
2023/05/20 02:38:17;;;;;;;9.15;4.00;;;11.80;99.90;;;;;;5021613;28;20033;-57
2023/05/20 02:40:43;;;;;;;10.15;5.78;;;11.80;99.90;;;;;;5021664;28;20050;-57
2023/05/20 02:43:09;;;;;;;16.20;7.43;;;11.80;99.90;;;;;;5020591;28;20046;-57
2023/05/20 02:45:35;;;;;;;13.77;6.65;;;11.70;99.90;;;;;;5020115;28;20422;-58
2023/05/20 02:48:01;;;;;;;15.75;5.80;;;11.70;99.90;;;;;;5016033;28;20113;-57
2023/05/20 02:50:26;;;;;;;9.07;5.75;;;11.70;99.90;;;;;;5021168;28;20471;-57
2023/05/20 02:52:52;;;;;;;12.20;4.75;;;11.70;99.90;;;;;;5021994;28;20096;-57
2023/05/20 02:55:18;;;;;;;6.88;5.03;;;11.70;99.90;;;;;;5023628;28;20103;-57
2023/05/20 02:57:44;;;;;;;8.25;4.00;;;11.70;99.90;;;;;;5023481;28;20052;-57
2023/05/20 03:00:10;;;;;;;18.25;7.22;;;11.70;99.90;;;;;;5019431;28;20613;-57
2023/05/20 03:02:36;;;;;;;8.82;6.85;;;11.70;99.90;;;;;;5021969;28;20038;-58
2023/05/20 03:05:04;;;;;;;13.57;7.63;;;11.60;99.90;;;;;;5023553;28;20832;-58
2023/05/20 03:07:30;;;;;;;15.48;6.97;;;11.70;99.90;;;;;;5020356;28;20050;-57
2023/05/20 03:09:58;;;;;;;9.88;5.40;;;11.60;99.90;;;;;;5017990;28;20812;-57
2023/05/20 03:12:25;;;;;;;12.27;5.45;;;11.60;99.90;;;;;;5005192;28;20133;-57
2023/05/20 03:14:54;;;;;;;11.82;4.75;;;11.60;99.90;;;;;;5019854;28;20041;-57
2023/05/20 03:17:23;;;;;;;9.73;5.43;;;11.50;99.90;;;;;;5019482;28;20076;-57
2023/05/20 03:19:48;;;;;;;11.27;6.97;;;11.50;99.90;;;;;;5019300;28;20050;-57
2023/05/20 03:22:14;;;;;;;7.85;5.03;;;11.50;99.90;;;;;;5019739;28;20042;-58
2023/05/20 03:24:41;;;;;;;14.55;6.15;;;11.50;99.90;;;;;;5020012;28;20065;-58
2023/05/20 03:27:07;;;;;;;12.25;6.90;;;11.40;99.90;;;;;;5019752;28;20849;-57
2023/05/20 03:29:33;;;;;;;13.55;5.75;;;11.40;99.90;;;;;;5020256;28;20516;-57
2023/05/20 03:31:58;;;;;;;11.43;5.40;;;11.40;99.90;;;;;;5021933;28;20042;-58
2023/05/20 03:34:26;;;;;;;12.70;6.10;;;11.40;99.90;;;;;;5018147;28;20139;-57
2023/05/20 03:36:52;;;;;;;15.05;6.72;;;11.40;99.90;;;;;;5019055;28;20041;-57
2023/05/20 03:39:18;;;;;;;14.93;6.90;;;11.40;99.90;;;;;;5019719;28;20563;-57
2023/05/20 03:41:44;;;;;;;4.32;2.50;;;11.40;99.90;;;;;;5017612;28;20042;-57
2023/05/20 03:44:10;;;;;;;12.60;5.35;;;11.30;99.90;;;;;;5002937;28;20116;-57
2023/05/20 03:46:35;;;;;;;13.27;6.65;;;11.30;99.90;;;;;;5015018;28;20527;-57
2023/05/20 03:49:01;;;;;;;17.10;6.25;;;11.30;99.90;;;;;;5015414;28;20054;-57
2023/05/20 03:51:27;;;;;;;9.85;6.30;;;11.30;99.90;;;;;;5016933;28;20038;-57
2023/05/20 03:53:53;;;;;;;12.95;5.43;;;11.30;99.90;;;;;;5021321;28;20574;-57
2023/05/20 03:56:18;;;;;;;12.35;8.15;;;11.30;99.90;;;;;;5021082;28;20061;-58
2023/05/20 03:58:44;;;;;;;12.25;6.07;;;11.30;99.90;;;;;;5019329;28;20045;-57
2023/05/20 04:01:13;;;;;;;10.07;5.90;;;11.30;99.90;;;;;;5018951;28;20072;-57
2023/05/20 04:03:40;;;;;;;13.80;7.30;;;11.30;99.90;;;;;;5020194;28;20603;-57
2023/05/20 04:06:06;;;;;;;16.35;5.75;;;11.30;99.90;;;;;;5018524;28;20566;-57
2023/05/20 04:08:32;;;;;;;16.23;5.03;;;11.40;99.90;;;;;;5019669;28;20049;-57
2023/05/20 04:10:58;;;;;;;11.25;4.72;;;11.30;99.90;;;;;;5017552;28;20042;-57
2023/05/20 04:13:24;;;;;;;12.40;6.03;;;11.40;99.90;;;;;;5020786;28;20494;-57
2023/05/20 04:15:51;;;;;;;13.05;6.50;;;11.30;99.90;;;;;;5020694;28;20071;-57
2023/05/20 04:18:17;;;;;;;13.57;7.00;;;11.30;99.90;;;;;;5017586;28;20041;-57
2023/05/20 04:20:43;;;;;;;12.50;7.13;;;11.30;99.90;;;;;;5017735;28;20064;-57
2023/05/20 04:23:09;;;;;;;12.88;6.07;;;11.40;99.90;;;;;;5018235;28;20551;-58
2023/05/20 04:25:35;;;;;;;13.77;5.93;;;11.40;99.90;;;;;;5015277;28;20046;-57
2023/05/20 04:28:01;;;;;;;12.38;5.20;;;11.40;99.90;;;;;;5019422;28;20553;-57
2023/05/20 04:30:27;;;;;;;10.10;6.45;;;11.40;99.90;;;;;;5022574;28;20552;-58
2023/05/20 04:32:53;;;;;;;13.52;7.95;;;11.40;99.90;;;;;;5022042;28;20099;-57
2023/05/20 04:35:19;;;;;;;17.58;8.00;;;11.40;99.90;;;;;;5020478;28;20073;-57
2023/05/20 04:37:47;;;;;;;15.13;6.30;;;11.40;99.90;;;;;;5054377;28;20132;-57
2023/05/20 04:40:14;;;;;;;14.25;7.60;;;11.50;99.90;;;;;;5019374;28;20531;-58
2023/05/20 04:42:39;;;;;;;12.80;7.63;;;11.40;99.90;;;;;;5021117;28;20129;-57
2023/05/20 04:45:07;;;;;;;12.23;7.05;;;11.40;99.90;;;;;;5022250;28;20049;-57
2023/05/20 04:47:37;;;;;;;19.30;8.25;;;11.40;99.90;;;;;;5019806;28;20873;-58
2023/05/20 04:50:14;;;;;;;4.72;3.28;;;11.50;99.90;;;;;;5019012;28;20539;-57
2023/05/20 04:52:41;;;;;;;10.45;6.32;;;11.50;99.90;;;;;;5020361;28;20050;-57
2023/05/20 04:55:09;;;;;;;13.05;6.95;;;11.60;99.90;;;;;;5018103;28;20101;-58
2023/05/20 04:57:37;;;;;;;15.27;6.15;;;11.50;99.90;;;;;;5019384;28;20054;-57
2023/05/20 05:00:06;;;;;;;7.45;5.15;;;11.50;99.90;;;;;;5021499;28;20034;-57
2023/05/20 05:02:32;;;;;;;12.30;7.15;;;11.50;99.90;;;;;;5021712;28;20558;-57
2023/05/20 05:04:58;;;;;;;15.18;7.50;;;11.50;99.90;;;;;;5020616;28;20129;-57
2023/05/20 05:07:24;;;;;;;13.93;6.50;;;11.50;99.90;;;;;;5020674;28;20044;-57
2023/05/20 05:09:50;;;;;;;12.90;6.80;;;11.60;99.90;;;;;;5020641;28;20587;-57
2023/05/20 05:12:15;;;;;;;13.75;6.10;;;11.50;99.90;;;;;;5021013;28;20053;-57
2023/05/20 05:14:41;;;;;;;21.33;7.90;;;11.60;99.90;;;;;;5016414;28;20416;-58
2023/05/20 05:17:07;;;;;;;13.18;7.85;;;11.60;99.90;;;;;;5018372;28;20526;-57
2023/05/20 05:19:33;;;;;;;12.73;7.25;;;11.60;99.90;;;;;;5016604;28;20049;-57
2023/05/20 05:21:58;;;;;;;15.02;5.88;;;11.70;99.90;;;;;;5019832;28;20049;-58
2023/05/20 05:24:24;;;;;;;12.65;5.43;;;11.60;99.90;;;;;;5015099;28;20364;-57
2023/05/20 05:26:53;;;;;;;14.32;7.55;;;11.70;99.90;;;;;;5019508;28;21195;-57
2023/05/20 05:29:19;;;;;;;11.00;5.55;;;11.70;99.90;;;;;;5019272;28;20049;-58
2023/05/20 05:31:45;;;;;;;10.98;6.30;;;11.70;99.90;;;;;;5019781;28;20505;-57
2023/05/20 05:34:10;;;;;;;12.45;7.20;;;11.70;99.90;;;;;;5014675;28;20042;-58
2023/05/20 05:36:38;;;;;;;11.13;5.25;;;11.70;99.90;;;;;;5019014;28;20042;-58
2023/05/20 05:39:04;;;;;;;12.23;6.35;;;11.70;99.90;;;;;;5020829;28;21123;-57
2023/05/20 05:41:30;;;;;;;15.15;6.90;;;11.70;99.90;;;;;;5009878;28;20045;-57
2023/05/20 05:43:57;;;;;;;14.27;7.45;;;11.80;99.90;;;;;;5017668;28;20180;-58
2023/05/20 05:46:23;;;;;;;21.35;6.90;;;11.70;99.90;;;;;;5018787;28;20108;-57
2023/05/20 05:48:49;;;;;;;13.10;5.53;;;11.80;99.90;;;;;;5019848;28;20100;-57
2023/05/20 05:51:16;;;;;;;14.55;7.25;;;11.80;99.90;;;;;;5016390;28;20061;-58
2023/05/20 05:53:41;;;;;;;19.73;7.35;;;11.80;99.90;;;;;;5016245;28;20042;-57
2023/05/20 05:56:08;;;;;;;11.90;5.82;;;11.80;99.90;;;;;;5019472;28;20068;-57
2023/05/20 05:58:34;;;;;;;9.23;6.30;;;11.80;99.90;;;;;;5016525;28;20049;-57
2023/05/20 06:01:00;;;;;;;19.15;7.47;;;11.90;99.90;;;;;;5013588;28;20097;-57
2023/05/20 06:03:26;;;;;;;14.07;8.32;;;11.90;99.90;;;;;;5013622;28;20782;-57
2023/05/20 06:05:52;;;;;;;14.63;7.32;;;11.90;99.90;;;;;;5012259;28;20582;-57
2023/05/20 06:08:17;;;;;;;19.23;7.80;;;12.00;99.90;;;;;;5015799;28;20103;-57
2023/05/20 06:10:48;;;;;;;12.05;7.05;;;11.90;99.90;;;;;;5012681;28;20525;-57
2023/05/20 06:13:14;;;;;;;14.13;7.63;;;12.00;99.90;;;;;;5019567;28;20050;-57
2023/05/20 06:15:40;;;;;;;11.27;6.32;;;12.00;99.90;;;;;;5017961;28;20057;-57
2023/05/20 06:18:06;;;;;;;15.15;8.93;;;12.00;99.90;;;;;;5019358;28;20062;-58
2023/05/20 06:20:31;;;;;;;15.15;7.60;;;12.10;99.90;;;;;;5010012;28;20041;-57
2023/05/20 06:22:57;;;;;;;17.52;8.88;;;12.10;99.90;;;;;;5017469;28;20045;-57
2023/05/20 06:25:24;;;;;;;10.20;6.10;;;12.20;99.90;;;;;;5012027;28;20041;-58
2023/05/20 06:27:50;;;;;;;12.02;6.72;;;12.20;99.90;;;;;;5020468;28;20043;-57
2023/05/20 06:30:16;;;;;;;18.85;8.35;;;12.20;99.90;;;;;;5020254;28;20133;-58
2023/05/20 06:32:42;;;;;;;16.23;7.82;;;12.30;99.90;;;;;;5021470;28;20140;-57
2023/05/20 06:35:08;;;;;;;12.45;6.85;;;12.30;99.90;;;;;;5017506;28;20111;-57
2023/05/20 06:37:34;;;;;;;15.75;6.57;;;12.40;99.90;;;;;;5023114;28;20052;-57
2023/05/20 06:40:00;;;;;;;13.57;7.20;;;12.40;99.90;;;;;;5056176;28;20072;-57
2023/05/20 06:42:26;;;;;;;14.43;8.13;;;12.50;99.90;;;;;;5021078;28;20048;-58
2023/05/20 06:44:52;;;;;;;20.98;7.85;;;12.60;99.90;;;;;;5022426;28;20532;-58
2023/05/20 06:47:18;;;;;;;13.07;6.90;;;12.60;99.90;;;;;;5024977;28;20432;-57
2023/05/20 06:49:43;;;;;;;15.35;7.68;;;12.60;99.90;;;;;;5023676;28;22023;-57
2023/05/20 06:52:10;;;;;;;16.42;9.25;;;12.70;99.90;;;;;;5021093;28;20044;-58
2023/05/20 06:54:40;;;;;;;14.45;7.85;;;12.70;99.90;;;;;;5051932;28;20042;-58
2023/05/20 06:57:08;;;;;;;19.80;9.00;;;12.80;99.90;;;;;;5020456;28;20138;-58
2023/05/20 06:59:35;;;;;;;13.27;7.40;;;12.90;99.90;;;;;;5007046;28;20596;-58
2023/05/20 07:02:02;;;;;;;12.07;8.23;;;12.90;99.90;;;;;;5021012;28;20881;-57
2023/05/20 07:04:27;;;;;;;12.30;8.23;;;13.00;99.90;;;;;;5023118;28;20037;-57
2023/05/20 07:06:53;;;;;;;18.13;7.50;;;13.00;99.90;;;;;;5018288;28;20057;-58
2023/05/20 07:09:19;;;;;;;14.60;7.45;;;13.10;99.90;;;;;;5020105;28;20072;-58
2023/05/20 07:11:44;;;;;;;19.15;9.02;;;13.20;99.90;;;;;;5016168;28;20238;-57
2023/05/20 07:14:10;;;;;;;15.02;8.98;;;13.30;99.90;;;;;;5021207;28;20038;-58
2023/05/20 07:16:36;;;;;;;15.95;9.57;;;13.20;99.90;;;;;;5023022;28;20041;-58
2023/05/20 07:19:03;;;;;;;10.35;6.38;;;13.20;99.90;;;;;;5022508;28;20050;-57
2023/05/20 07:21:28;;;;;;;14.07;5.88;;;13.30;99.90;;;;;;5006775;28;20072;-58
2023/05/20 07:23:54;;;;;;;16.50;9.20;;;13.30;99.90;;;;;;5022390;28;20141;-57
2023/05/20 07:26:20;;;;;;;17.63;8.27;;;13.30;99.90;;;;;;5016462;28;20512;-57
2023/05/20 07:28:46;;;;;;;12.00;5.70;;;13.40;99.90;;;;;;5017861;28;20060;-58
2023/05/20 07:31:12;;;;;;;13.13;8.32;;;13.50;99.90;;;;;;5021502;28;20062;-58
2023/05/20 07:33:38;;;;;;;16.77;7.97;;;13.50;99.90;;;;;;5051503;28;20042;-58
2023/05/20 07:36:05;;;;;;;13.98;8.57;;;13.60;99.90;;;;;;5017973;28;20046;-58
2023/05/20 07:38:31;;;;;;;19.52;9.70;;;13.70;99.90;;;;;;5020768;28;20048;-58
2023/05/20 07:40:57;;;;;;;16.40;7.15;;;13.80;99.90;;;;;;5021330;28;20871;-58
2023/05/20 07:43:22;;;;;;;13.35;8.18;;;13.90;99.90;;;;;;5022782;28;20046;-57
2023/05/20 07:45:48;;;;;;;17.00;7.80;;;13.90;99.90;;;;;;5018471;28;21420;-57
2023/05/20 07:48:14;;;;;;;16.88;8.73;;;14.00;99.90;;;;;;5015854;28;20132;-57
2023/05/20 07:50:40;;;;;;;20.73;10.30;;;14.00;99.90;;;;;;5022393;28;20520;-58
2023/05/20 07:53:05;;;;;;;14.63;7.32;;;14.10;99.90;;;;;;5017599;28;20519;-58
2023/05/20 07:55:35;;;;;;;16.75;7.68;;;14.20;99.90;;;;;;5018560;28;20456;-57
2023/05/20 07:58:02;;;;;;;12.68;7.82;;;14.20;99.90;;;;;;5014388;28;20048;-57
2023/05/20 08:00:27;;;;;;;13.02;8.68;;;14.20;99.90;;;;;;5014942;28;20310;-58
2023/05/20 08:02:53;;;;;;;7.97;4.57;;;14.20;99.90;;;;;;5047187;28;20177;-57
2023/05/20 08:05:19;;;;;;;14.70;8.60;;;14.40;99.90;;;;;;5024212;28;20602;-58
2023/05/20 08:07:44;;;;;;;21.33;10.95;;;14.40;99.90;;;;;;5012467;28;20041;-57
2023/05/20 08:10:10;;;;;;;7.57;5.60;;;14.40;99.90;;;;;;5018587;28;20057;-57
2023/05/20 08:12:36;;;;;;;13.63;8.07;;;14.40;99.90;;;;;;5014884;28;20475;-57
2023/05/20 08:15:03;;;;;;;15.93;8.70;;;14.40;99.90;;;;;;5017397;28;20052;-59
2023/05/20 08:17:28;;;;;;;16.48;8.27;;;14.40;99.90;;;;;;5019100;28;20053;-58
2023/05/20 08:19:54;;;;;;;13.82;7.53;;;14.40;99.90;;;;;;5019237;28;20096;-57
2023/05/20 08:22:20;;;;;;;17.00;10.05;;;14.50;99.90;;;;;;5020136;28;20034;-57
2023/05/20 08:24:46;;;;;;;18.08;9.40;;;14.50;99.90;;;;;;5018391;28;20037;-58
2023/05/20 08:27:11;;;;;;;15.65;8.20;;;14.70;99.90;;;;;;5016931;28;20049;-57
2023/05/20 08:29:37;;;;;;;20.45;8.95;;;14.80;99.90;;;;;;5018781;28;20049;-57
2023/05/20 08:32:03;;;;;;;15.60;9.50;;;14.90;99.90;;;;;;5018353;28;20515;-58
2023/05/20 08:34:29;;;;;;;15.18;7.75;;;15.00;99.90;;;;;;5019030;28;20040;-58
2023/05/20 08:36:56;;;;;;;18.05;9.70;;;14.90;99.90;;;;;;5017029;28;20088;-58
2023/05/20 08:39:22;;;;;;;15.85;8.10;;;14.70;99.90;;;;;;5020939;28;20042;-58
2023/05/20 08:41:48;;;;;;;13.05;7.50;;;14.60;99.90;;;;;;5020563;28;20065;-58
2023/05/20 08:44:16;;;;;;;13.30;7.38;;;14.50;99.90;;;;;;5015831;28;20201;-57
2023/05/20 08:46:42;;;;;;;12.70;7.28;;;14.50;99.90;;;;;;5014157;28;20048;-57
2023/05/20 08:49:08;;;;;;;18.27;9.23;;;14.50;99.90;;;;;;5019036;28;20193;-58
2023/05/20 08:51:36;;;;;;;14.38;8.23;;;14.60;99.90;;;;;;5020004;28;20468;-58
2023/05/20 08:54:02;;;;;;;15.52;7.90;;;14.80;99.90;;;;;;5015643;28;20092;-57
2023/05/20 08:56:28;;;;;;;13.43;8.23;;;14.90;99.90;;;;;;5019538;28;20090;-57
2023/05/20 08:58:54;;;;;;;14.13;7.57;;;15.00;99.90;;;;;;5021121;28;20064;-57
2023/05/20 09:01:26;;;;;;;17.17;8.82;;;15.00;99.90;;;;;;5018870;28;20153;-57
2023/05/20 09:03:51;;;;;;;11.93;6.63;;;15.10;99.90;;;;;;5021388;28;20045;-58
2023/05/20 09:06:20;;;;;;;20.00;8.43;;;15.20;99.90;;;;;;5017635;28;20136;-57
2023/05/20 09:08:50;;;;;;;16.33;7.90;;;15.30;99.90;;;;;;5019371;28;20573;-57
2023/05/20 09:11:15;;;;;;;18.05;7.75;;;15.30;99.90;;;;;;5021355;28;20046;-57
2023/05/20 09:13:41;;;;;;;9.25;5.25;;;15.20;99.90;;;;;;5020531;28;20460;-58
2023/05/20 09:16:09;;;;;;;11.35;6.72;;;15.20;99.90;;;;;;5021928;28;20049;-57
2023/05/20 09:18:38;;;;;;;11.55;6.93;;;15.20;99.90;;;;;;5022608;28;20081;-57
2023/05/20 09:21:07;;;;;;;11.88;7.45;;;15.40;99.90;;;;;;5020196;28;20051;-57
2023/05/20 09:23:37;;;;;;;12.15;7.00;;;15.50;99.90;;;;;;5020467;28;20042;-57
2023/05/20 09:26:03;;;;;;;15.88;8.40;;;15.60;99.90;;;;;;5020747;28;20543;-57
2023/05/20 09:28:28;;;;;;;11.95;6.97;;;15.60;99.90;;;;;;5018546;28;20041;-56
2023/05/20 09:30:58;;;;;;;14.15;6.63;;;15.60;99.90;;;;;;5023566;28;20784;-57
2023/05/20 09:33:28;;;;;;;15.32;6.95;;;15.60;99.90;;;;;;5018000;28;20050;-57
2023/05/20 09:36:04;;;;;;;9.77;5.95;;;15.60;99.90;;;;;;5015416;28;20060;-57
2023/05/20 09:38:36;;;;;;;14.20;7.20;;;15.50;99.90;;;;;;5019423;28;20048;-57
2023/05/20 09:41:07;;;;;;;12.50;5.57;;;15.50;99.90;;;;;;5014122;28;20046;-56
2023/05/20 09:43:34;;;;;;;7.18;4.53;;;15.50;99.90;;;;;;5016254;28;20543;-57
2023/05/20 09:46:01;;;;;;;18.23;8.40;;;15.50;99.90;;;;;;5018804;28;20121;-57
2023/05/20 09:48:29;;;;;;;11.27;5.18;;;15.50;99.90;;;;;;5021882;28;20071;-57
2023/05/20 09:50:56;;;;;;;8.80;5.22;;;15.70;99.90;;;;;;5022241;28;20049;-56
2023/05/20 09:53:25;;;;;;;10.68;5.05;;;15.50;99.90;;;;;;5023465;28;20046;-56
2023/05/20 09:55:52;;;;;;;10.20;5.38;;;15.60;99.90;;;;;;5020229;28;20432;-57
2023/05/20 09:58:19;;;;;;;9.32;5.60;;;15.60;99.90;;;;;;5020230;28;20530;-56
2023/05/20 10:00:45;;;;;;;9.23;6.10;;;15.60;99.90;;;;;;5022007;28;20516;-56
2023/05/20 10:03:11;;;;;;;6.72;4.45;;;15.60;99.90;;;;;;5023632;28;20040;-57
2023/05/20 10:05:41;;;;;;;14.80;5.05;;;15.70;99.90;;;;;;5022708;28;20554;-57
2023/05/20 10:08:10;;;;;;;12.73;5.90;;;15.70;99.90;;;;;;5021181;28;20041;-56
2023/05/20 10:10:56;;;;;;;4.32;2.80;;;15.80;99.90;;;;;;5024706;28;20053;-57
2023/05/20 10:13:41;;;;;;;9.30;4.00;;;15.80;99.90;;;;;;5025493;28;20917;-56
2023/05/20 10:16:31;;;;;;;10.00;5.47;;;15.80;99.90;;;;;;5021560;28;20054;-56
2023/05/20 10:19:13;;;;;;;6.65;5.35;;;15.90;99.90;;;;;;5022429;28;20554;-56
2023/05/20 10:21:39;;;;;;;10.18;4.28;;;15.90;99.90;;;;;;5023080;28;20049;-56
2023/05/20 10:24:09;;;;;;;10.05;5.38;;;16.00;99.90;;;;;;5025223;28;20455;-56
2023/05/20 10:26:40;;;;;;;8.23;4.40;;;16.00;99.90;;;;;;5024814;28;21059;-57
2023/05/20 10:29:19;;;;;;;8.77;4.38;;;16.00;99.90;;;;;;5024066;28;20128;-56
2023/05/20 10:31:48;;;;;;;8.25;4.10;;;16.10;99.90;;;;;;5022138;28;20563;-56
2023/05/20 10:34:20;;;;;;;6.78;3.83;;;16.20;99.90;;;;;;5025505;28;20589;-57
2023/05/20 10:36:53;;;;;;;7.30;4.78;;;16.30;99.90;;;;;;5024371;28;20548;-56
2023/05/20 10:39:25;;;;;;;2.78;2.28;;;16.20;99.90;;;;;;5021725;28;20112;-56
2023/05/20 10:41:51;;;;;;;8.25;4.18;;;16.30;99.90;;;;;;5022652;28;20045;-57
2023/05/20 10:44:16;;;;;;;4.20;3.03;;;16.40;99.90;;;;;;5019749;28;20045;-57
2023/05/20 10:46:42;;;;;;;8.65;3.85;;;16.40;99.90;;;;;;5023057;28;20046;-56
2023/05/20 10:49:21;;;;;;;4.50;3.38;;;16.40;99.90;;;;;;5006973;28;20540;-59
2023/05/20 10:51:46;;;;;;;5.30;3.60;;;16.50;99.90;;;;;;5018252;28;20052;-56
2023/05/20 10:54:14;;;;;;;4.95;3.13;;;16.50;99.90;;;;;;5020599;28;20045;-57
2023/05/20 10:56:50;;;;;;;6.55;2.65;;;16.50;99.90;;;;;;5017523;28;20057;-57
2023/05/20 10:59:16;;;;;;;4.68;2.85;;;16.60;99.90;;;;;;5020574;28;20570;-56
2023/05/20 11:01:42;;;;;;;3.47;2.25;;;16.70;99.90;;;;;;5003810;28;20053;-56
2023/05/20 11:04:08;;;;;;;7.45;3.10;;;16.80;99.90;;;;;;5018189;28;20041;-57
2023/05/20 11:06:34;;;;;;;4.15;2.15;;;16.80;99.90;;;;;;5017623;28;20049;-56
2023/05/20 11:09:06;;;;;;;11.82;2.88;;;16.80;99.90;;;;;;5015634;28;20053;-56
2023/05/20 11:11:32;;;;;;;5.40;3.25;;;16.90;99.90;;;;;;5016781;28;20046;-57
2023/05/20 11:13:59;;;;;;;5.45;2.55;;;16.90;99.30;;;;;;5023640;28;20080;-57
2023/05/20 11:16:25;;;;;;;6.20;2.50;;;16.90;98.60;;;;;;5020191;28;20085;-57
2023/05/20 11:18:51;;;;;;;3.92;2.13;;;16.90;98.50;;;;;;5020742;28;20551;-57
2023/05/20 11:21:18;;;;;;;7.28;3.10;;;17.00;98.50;;;;;;5021622;28;20050;-56
2023/05/20 11:23:44;;;;;;;9.35;3.00;;;17.20;97.90;;;;;;5019373;28;20038;-56
2023/05/20 11:26:10;;;;;;;8.18;4.28;;;17.30;97.50;;;;;;5022517;28;20464;-57
2023/05/20 11:28:36;;;;;;;6.15;2.58;;;17.40;97.50;;;;;;5012568;28;20128;-57
2023/05/20 11:31:03;;;;;;;8.38;3.70;;;17.60;97.20;;;;;;5020468;28;20069;-57
2023/05/20 11:33:29;;;;;;;14.15;5.57;;;17.80;97.10;;;;;;5015751;28;20045;-57
2023/05/20 11:35:56;;;;;;;8.55;3.25;;;18.10;96.90;;;;;;5008147;28;20155;-57
2023/05/20 11:38:23;;;;;;;11.10;4.05;;;18.30;96.10;;;;;;5014508;28;20042;-57
2023/05/20 11:40:53;;;;;;;6.85;3.17;;;18.40;95.90;;;;;;5017563;28;20551;-57
2023/05/20 11:43:20;;;;;;;5.55;2.80;;;18.60;95.60;;;;;;5020023;28;20167;-57
2023/05/20 11:45:52;;;;;;;3.83;2.47;;;18.80;95.40;;;;;;5017560;28;20544;-56
2023/05/20 11:48:17;;;;;;;;;;;19.00;94.70;;;;;;5020403;28;20042;-57
2023/05/20 11:50:45;;;;;;;5.70;2.35;;;19.10;94.00;;;;;;5018536;28;20030;-57
2023/05/20 11:53:18;;;;;;;7.85;2.85;;;19.20;94.10;;;;;;5021970;28;20029;-57
2023/05/20 11:55:57;;;;;;;3.80;2.15;;;19.30;93.00;;;;;;5017120;28;20072;-57
2023/05/20 11:58:29;;;;;;;3.45;2.42;;;19.40;92.90;;;;;;5019964;28;20034;-57
2023/05/20 12:00:55;;;;;;;4.57;2.22;;;19.50;92.80;;;;;;5019696;28;20049;-57
2023/05/20 12:03:21;;;;;;;3.50;2.00;;;19.70;92.60;;;;;;5018167;28;20033;-56
2023/05/20 12:05:47;;;;;;;6.32;2.80;;;19.80;91.50;;;;;;5017868;28;20049;-57
2023/05/20 12:08:13;;;;;;;6.15;2.05;;;19.80;91.70;;;;;;5016397;28;20045;-56
2023/05/20 12:10:39;;;;;;;6.97;3.05;;;19.90;91.30;;;;;;5021595;28;20429;-57
2023/05/20 12:13:07;;;;;;;4.07;2.78;;;20.00;91.00;;;;;;5019226;28;20412;-68
2023/05/20 12:15:36;;;;;;;3.88;2.58;;;20.10;90.50;;;;;;5017495;28;20050;-56
2023/05/20 12:18:02;;;;;;;3.40;1.60;;;20.10;90.50;;;;;;5015226;28;20046;-56
2023/05/20 12:20:30;;;;;;;3.35;2.33;;;20.20;90.70;;;;;;5016281;28;20044;-56
2023/05/20 12:22:56;;;;;;;3.22;1.65;;;20.30;90.50;;;;;;5017304;28;20045;-56
2023/05/20 12:25:22;;;;;;;3.50;1.95;;;20.30;90.20;;;;;;5022199;28;20555;-57
2023/05/20 12:27:49;;;;;;;4.47;2.58;;;20.30;89.30;;;;;;5016440;28;20041;-57
2023/05/20 12:30:20;;;;;;;6.40;2.55;;;20.40;89.10;;;;;;5017822;28;20049;-56
2023/05/20 12:32:46;;;;;;;3.93;2.00;;;20.50;88.50;;;;;;5017887;28;20123;-56
2023/05/20 12:35:13;;;;;;;3.45;2.10;;;20.20;87.50;;;;;;5017405;28;20344;-57
2023/05/20 12:37:40;;;;;;;3.65;2.40;;;20.50;88.00;;;;;;5018632;28;22224;-57
2023/05/20 12:40:07;;;;;;;6.32;2.95;;;20.60;87.60;;;;;;5019000;28;20045;-56